createdAt,value
2022-08-03T00:01:49.474Z,25.31
2022-08-03T00:04:16.407Z,25.33
2022-08-03T00:06:43.062Z,25.34
2022-08-03T00:09:10.338Z,25.34
2022-08-03T00:11:37.439Z,25.37
2022-08-03T00:14:05.266Z,25.36
2022-08-03T00:16:31.935Z,25.34
2022-08-03T00:18:58.685Z,25.18
2022-08-03T00:21:28.053Z,25.18
2022-08-03T00:23:54.693Z,25.17
2022-08-03T00:26:21.870Z,25.10
2022-08-03T00:28:49.132Z,25.06
2022-08-03T00:31:16.147Z,25.04
2022-08-03T00:33:59.045Z,25.02
2022-08-03T00:36:27.761Z,24.99
2022-08-03T00:38:55.137Z,24.95
2022-08-03T00:41:21.709Z,24.88
2022-08-03T00:43:48.504Z,24.79
2022-08-03T00:46:19.214Z,24.78
2022-08-03T00:48:49.567Z,24.75
2022-08-03T00:51:16.574Z,24.77
2022-08-03T00:53:43.583Z,24.72
2022-08-03T00:56:14.070Z,24.70
2022-08-03T00:58:41.136Z,24.69
2022-08-03T01:01:07.721Z,24.70
2022-08-03T01:03:34.514Z,24.77
2022-08-03T01:06:12.819Z,24.77
2022-08-03T01:08:58.673Z,24.73
2022-08-03T01:11:33.992Z,24.75
2022-08-03T01:14:18.838Z,24.68
2022-08-03T01:16:59.311Z,24.62
2022-08-03T01:19:50.618Z,24.51
2022-08-03T01:22:29.146Z,24.44
2022-08-03T01:24:58.479Z,24.43
2022-08-03T01:27:31.670Z,24.42
2022-08-03T01:30:10.056Z,24.45
2022-08-03T01:33:02.784Z,24.41
2022-08-03T01:35:42.299Z,24.43
2022-08-03T01:38:15.667Z,24.40
2022-08-03T01:40:44.839Z,24.37
2022-08-03T01:44:27.263Z,24.36
2022-08-03T01:46:04.212Z,24.31
2022-08-03T01:48:32.129Z,24.28
2022-08-03T01:51:00.101Z,24.14
2022-08-03T01:53:27.997Z,24.07
2022-08-03T01:55:57.351Z,24.00
2022-08-03T01:58:24.883Z,23.95
2022-08-03T02:00:52.987Z,23.96
2022-08-03T02:03:23.186Z,23.93
2022-08-03T02:06:06.114Z,23.91
2022-08-03T02:08:41.814Z,23.83
2022-08-03T02:11:08.439Z,23.74
2022-08-03T02:13:35.530Z,23.71
2022-08-03T02:16:03.960Z,23.69
2022-08-03T02:18:32.666Z,23.64
2022-08-03T02:21:02.380Z,23.63
2022-08-03T02:23:38.190Z,23.63
2022-08-03T02:26:06.921Z,23.69
2022-08-03T02:28:37.173Z,23.65
2022-08-03T02:31:07.977Z,23.65
2022-08-03T02:33:38.971Z,23.60
2022-08-03T02:36:07.917Z,23.59
2022-08-03T02:38:38.912Z,23.57
2022-08-03T02:41:08.976Z,23.58
2022-08-03T02:43:41.267Z,23.63
2022-08-03T02:46:30.355Z,23.60
2022-08-03T02:48:58.797Z,23.53
2022-08-03T02:51:29.991Z,23.38
2022-08-03T02:54:00.426Z,23.32
2022-08-03T02:56:30.927Z,23.21
2022-08-03T02:58:59.535Z,23.13
2022-08-03T03:01:29.019Z,23.06
2022-08-03T03:03:57.577Z,23.03
2022-08-03T03:06:26.832Z,22.97
2022-08-03T03:08:59.801Z,22.94
2022-08-03T03:11:27.248Z,22.92
2022-08-03T03:13:56.926Z,22.86
2022-08-03T03:16:26.016Z,22.76
2022-08-03T03:18:54.415Z,22.73
2022-08-03T03:21:22.107Z,22.67
2022-08-03T03:23:49.315Z,22.73
2022-08-03T03:26:16.433Z,22.67
2022-08-03T03:28:43.870Z,22.63
2022-08-03T03:31:11.530Z,22.58
2022-08-03T03:33:39.017Z,22.59
2022-08-03T03:36:07.043Z,22.54
2022-08-03T03:38:33.856Z,22.52
2022-08-03T03:41:01.159Z,22.54
2022-08-03T03:43:29.329Z,22.43
2022-08-03T03:45:57.236Z,22.39
2022-08-03T03:48:25.083Z,22.38
2022-08-03T03:50:51.904Z,22.41
2022-08-03T03:53:18.557Z,22.42
2022-08-03T03:56:01.838Z,22.49
2022-08-03T03:58:30.622Z,22.50
2022-08-03T04:00:57.289Z,22.50
2022-08-03T04:03:23.978Z,22.43
2022-08-03T04:06:09.186Z,22.47
2022-08-03T04:08:54.577Z,22.51
2022-08-03T04:11:34.636Z,22.49
2022-08-03T04:14:18.950Z,22.48
2022-08-03T04:16:53.528Z,22.45
2022-08-03T04:19:28.215Z,22.48
2022-08-03T04:22:00.599Z,22.43
2022-08-03T04:24:41.468Z,22.44
2022-08-03T04:27:12.750Z,22.45
2022-08-03T04:29:48.261Z,22.40
2022-08-03T04:32:17.042Z,22.35
2022-08-03T04:34:44.220Z,22.40
2022-08-03T04:37:34.070Z,22.51
2022-08-03T04:40:03.080Z,22.50
2022-08-03T04:42:33.218Z,22.54
2022-08-03T04:45:01.793Z,22.59
2022-08-03T04:47:32.160Z,22.67
2022-08-03T04:50:01.061Z,22.78
2022-08-03T04:52:27.807Z,22.81
2022-08-03T04:54:54.435Z,22.86
2022-08-03T04:57:22.697Z,22.78
2022-08-03T05:00:02.695Z,22.86
2022-08-03T05:02:31.359Z,22.94
2022-08-03T05:04:58.320Z,22.97
2022-08-03T05:07:25.356Z,23.05
2022-08-03T05:09:57.486Z,23.11
2022-08-03T05:12:32.296Z,23.21
2022-08-03T05:14:59.967Z,23.30
2022-08-03T05:17:26.723Z,23.41
2022-08-03T05:19:53.525Z,23.60
2022-08-03T05:22:20.805Z,23.84
2022-08-03T05:24:47.446Z,24.10
2022-08-03T05:27:19.136Z,24.41
2022-08-03T05:29:46.609Z,24.67
2022-08-03T05:32:13.301Z,24.98
2022-08-03T05:34:39.876Z,25.35
2022-08-03T05:37:07.367Z,25.62
2022-08-03T05:39:35.184Z,25.94
2022-08-03T05:42:02.360Z,26.37
2022-08-03T05:44:29.126Z,26.68
2022-08-03T05:46:57.984Z,27.00
2022-08-03T05:49:24.564Z,27.32
2022-08-03T05:52:00.106Z,27.43
2022-08-03T05:54:57.162Z,27.62
2022-08-03T05:57:27.594Z,27.64
2022-08-03T05:59:58.245Z,27.63
2022-08-03T06:02:26.799Z,27.87
2022-08-03T06:04:54.081Z,27.68
2022-08-03T06:07:20.677Z,27.77
2022-08-03T06:10:35.020Z,28.17
2022-08-03T06:12:37.162Z,28.29
2022-08-03T06:15:05.175Z,28.53
2022-08-03T06:17:37.292Z,28.99
2022-08-03T06:20:05.849Z,29.11
2022-08-03T06:22:32.494Z,29.40
2022-08-03T06:24:59.027Z,29.45
2022-08-03T06:27:37.052Z,29.32
2022-08-03T06:30:05.039Z,29.62
2022-08-03T06:32:32.331Z,29.83
2022-08-03T06:34:58.981Z,30.19
2022-08-03T06:37:27.008Z,30.45
2022-08-03T06:39:54.188Z,30.47
2022-08-03T06:42:21.020Z,30.76
2022-08-03T06:44:49.524Z,31.14
2022-08-03T06:47:16.059Z,31.44
2022-08-03T06:49:42.745Z,31.73
2022-08-03T06:52:09.338Z,32.10
2022-08-03T06:54:36.301Z,32.35
2022-08-03T06:57:03.677Z,32.80
2022-08-03T07:00:09.903Z,33.07
2022-08-03T07:02:19.318Z,33.57
2022-08-03T07:04:49.768Z,33.86
2022-08-03T07:07:17.412Z,34.41
2022-08-03T07:09:56.922Z,34.55
2022-08-03T07:12:24.462Z,35.40
2022-08-03T07:14:51.091Z,35.57
2022-08-03T07:17:18.654Z,35.56
2022-08-03T07:19:45.385Z,35.85
2022-08-03T07:22:12.051Z,35.84
2022-08-03T07:24:38.847Z,35.70
2022-08-03T07:27:05.497Z,35.64
2022-08-03T07:29:34.733Z,35.40
2022-08-03T07:32:02.080Z,35.28
2022-08-03T07:34:28.951Z,35.50
2022-08-03T07:36:55.686Z,35.57
2022-08-03T07:39:22.186Z,36.02
2022-08-03T07:41:51.417Z,35.85
2022-08-03T07:44:21.011Z,35.97
2022-08-03T07:46:47.602Z,36.25
2022-08-03T07:49:14.224Z,36.57
2022-08-03T07:51:40.880Z,36.49
2022-08-03T07:54:07.748Z,36.43
2022-08-03T07:56:34.304Z,36.49
2022-08-03T07:59:02.354Z,36.82
2022-08-03T08:01:29.424Z,37.11
2022-08-03T08:03:56.041Z,37.24
2022-08-03T08:06:22.632Z,37.23
2022-08-03T08:08:49.155Z,37.84
2022-08-03T08:11:15.965Z,38.17
2022-08-03T08:13:42.563Z,38.41
2022-08-03T08:16:09.117Z,38.72
2022-08-03T08:18:35.738Z,38.66
2022-08-03T08:21:03.362Z,38.35
2022-08-03T08:23:42.076Z,38.65
2022-08-03T08:26:09.686Z,39.32
2022-08-03T08:28:36.247Z,39.50
2022-08-03T08:31:02.830Z,40.13
2022-08-03T08:33:48.075Z,40.77
2022-08-03T08:36:16.134Z,41.39
2022-08-03T08:38:44.842Z,41.92
2022-08-03T08:41:13.235Z,42.60
2022-08-03T08:43:40.291Z,42.30
2022-08-03T08:46:10.194Z,42.10
2022-08-03T08:48:41.811Z,42.06
2022-08-03T08:51:11.486Z,42.31
2022-08-03T08:53:41.110Z,42.66
2022-08-03T08:56:10.266Z,42.76
2022-08-03T08:58:50.077Z,43.03
2022-08-03T09:01:21.865Z,43.94
2022-08-03T09:03:48.660Z,44.81
2022-08-03T09:06:15.314Z,44.96
2022-08-03T09:08:42.047Z,44.35
2022-08-03T09:11:08.864Z,44.17
2022-08-03T09:13:39.035Z,44.72
2022-08-03T09:16:22.877Z,44.02
2022-08-03T09:18:52.263Z,43.79
2022-08-03T09:21:37.526Z,44.96
2022-08-03T09:24:13.042Z,45.55
2022-08-03T09:26:50.974Z,46.87
2022-08-03T09:29:20.609Z,47.29
2022-08-03T09:31:47.354Z,48.02
2022-08-03T09:34:17.123Z,48.94
2022-08-03T09:36:49.220Z,49.07
2022-08-03T09:39:41.770Z,49.81
2022-08-03T09:42:10.933Z,50.93
2022-08-03T09:44:42.368Z,52.22
2022-08-03T09:47:10.468Z,52.34
2022-08-03T09:49:38.805Z,52.98
2022-08-03T09:52:39.324Z,54.27
2022-08-03T09:56:32.842Z,54.23
2022-08-03T09:58:07.184Z,53.60
2022-08-03T10:00:54.017Z,54.07
2022-08-03T10:03:20.971Z,54.49
2022-08-03T10:05:47.534Z,52.63
2022-08-03T10:08:19.112Z,52.28
2022-08-03T10:10:47.761Z,54.14
2022-08-03T10:13:15.918Z,54.55
2022-08-03T10:16:23.718Z,54.26
2022-08-03T10:18:29.426Z,56.00
2022-08-03T10:21:03.201Z,55.24
2022-08-03T10:23:34.466Z,55.21
2022-08-03T10:26:04.341Z,55.52
2022-08-03T10:28:59.575Z,55.73
2022-08-03T10:31:31.706Z,55.52
2022-08-03T10:34:00.330Z,57.05
2022-08-03T10:36:30.380Z,55.07
2022-08-03T10:38:57.754Z,54.17
2022-08-03T10:41:30.091Z,54.18
2022-08-03T10:44:02.970Z,53.48
2022-08-03T10:46:29.620Z,53.48
2022-08-03T10:48:56.774Z,53.09
2022-08-03T10:51:24.261Z,54.25
2022-08-03T10:53:54.597Z,54.11
2022-08-03T10:56:54.433Z,53.27
2022-08-03T10:59:45.930Z,54.60
2022-08-03T11:02:14.208Z,55.12
2022-08-03T11:04:41.691Z,55.54
2022-08-03T11:07:17.722Z,56.21
2022-08-03T11:09:48.365Z,56.02
2022-08-03T11:12:32.502Z,56.10
2022-08-03T11:15:02.188Z,56.10
2022-08-03T11:17:28.989Z,55.78
2022-08-03T11:19:56.831Z,56.04
2022-08-03T11:22:25.477Z,57.06
2022-08-03T11:24:54.218Z,57.48
2022-08-03T11:27:32.015Z,58.35
2022-08-03T11:30:09.042Z,58.02
2022-08-03T11:32:46.879Z,56.58
2022-08-03T11:35:16.263Z,57.88
2022-08-03T11:38:03.362Z,57.07
2022-08-03T11:40:52.552Z,56.87
2022-08-03T11:43:21.811Z,57.21
2022-08-03T11:46:06.186Z,56.52
2022-08-03T11:48:43.869Z,55.43
2022-08-03T11:51:23.398Z,56.93
2022-08-03T11:53:57.765Z,57.29
2022-08-03T11:56:25.355Z,57.80
2022-08-03T11:58:58.163Z,56.79
2022-08-03T12:01:41.866Z,56.72
2022-08-03T12:04:08.516Z,56.83
2022-08-03T12:06:54.700Z,56.50
2022-08-03T12:09:21.960Z,56.12
2022-08-03T12:11:59.699Z,54.26
2022-08-03T12:14:50.112Z,54.47
2022-08-03T12:17:15.034Z,53.80
2022-08-03T12:19:42.853Z,53.15
2022-08-03T12:22:09.490Z,52.31
2022-08-03T12:24:43.546Z,51.06
2022-08-03T12:27:10.114Z,50.50
2022-08-03T12:29:37.007Z,49.71
2022-08-03T12:32:03.850Z,48.87
2022-08-03T12:34:47.688Z,47.99
2022-08-03T12:37:20.262Z,45.67
2022-08-03T12:40:02.213Z,45.14
2022-08-03T12:42:34.946Z,45.18
2022-08-03T12:45:20.536Z,45.05
2022-08-03T12:48:01.701Z,45.01
2022-08-03T12:50:31.420Z,44.84
2022-08-03T12:53:00.178Z,44.64
2022-08-03T12:55:57.690Z,44.25
2022-08-03T12:58:35.610Z,43.78
2022-08-03T13:01:05.311Z,43.76
2022-08-03T13:03:45.690Z,43.76
2022-08-03T13:06:19.852Z,43.72
2022-08-03T13:08:47.948Z,43.68
2022-08-03T13:11:22.676Z,43.59
2022-08-03T13:13:50.699Z,43.42
2022-08-03T13:16:19.425Z,43.45
2022-08-03T13:18:48.816Z,42.80
2022-08-03T13:21:20.423Z,42.71
2022-08-03T13:23:47.236Z,42.82
2022-08-03T13:26:13.883Z,42.79
2022-08-03T13:28:40.424Z,42.71
2022-08-03T13:31:07.172Z,42.23
2022-08-03T13:33:34.234Z,41.93
2022-08-03T13:36:00.872Z,41.78
2022-08-03T13:38:27.555Z,41.81
2022-08-03T13:40:55.155Z,41.64
2022-08-03T13:43:22.514Z,41.64
2022-08-03T13:45:53.556Z,41.66
2022-08-03T13:48:37.080Z,41.35
2022-08-03T13:51:11.712Z,41.38
2022-08-03T13:53:49.479Z,41.49
2022-08-03T13:56:16.059Z,41.47
2022-08-03T13:58:42.617Z,41.25
2022-08-03T14:01:09.257Z,40.80
2022-08-03T14:03:35.973Z,40.79
2022-08-03T14:06:02.583Z,40.79
2022-08-03T14:08:29.350Z,40.95
2022-08-03T14:10:56.060Z,40.94
2022-08-03T14:13:23.160Z,41.24
2022-08-03T14:15:51.171Z,41.46
2022-08-03T14:18:27.598Z,41.55
2022-08-03T14:21:01.998Z,41.44
2022-08-03T14:23:32.559Z,41.31
2022-08-03T14:25:59.638Z,41.13
2022-08-03T14:28:26.239Z,41.16
2022-08-03T14:30:54.490Z,41.23
2022-08-03T14:33:21.404Z,41.11
2022-08-03T14:35:48.666Z,41.10
2022-08-03T14:38:15.491Z,41.18
2022-08-03T14:40:42.115Z,41.11
2022-08-03T14:43:08.976Z,40.96
2022-08-03T14:45:35.584Z,41.06
2022-08-03T14:50:30.492Z,40.73
2022-08-03T14:50:52.551Z,40.65
2022-08-03T14:53:19.904Z,40.81
2022-08-03T14:55:50.310Z,40.85
2022-08-03T14:58:20.775Z,40.43
2022-08-03T15:00:49.160Z,40.30
2022-08-03T15:03:16.935Z,40.30
2022-08-03T15:05:44.329Z,40.19
2022-08-03T15:08:11.049Z,40.28
2022-08-03T15:10:40.466Z,40.29
2022-08-03T15:13:14.724Z,40.34
2022-08-03T15:15:42.018Z,40.27
2022-08-03T15:18:08.847Z,40.19
2022-08-03T15:20:51.076Z,40.10
2022-08-03T15:23:18.569Z,40.09
2022-08-03T15:26:28.639Z,40.12
2022-08-03T15:28:32.590Z,40.18
2022-08-03T15:31:01.105Z,40.10
2022-08-03T15:33:28.391Z,40.04
2022-08-03T15:35:56.161Z,40.02
2022-08-03T15:38:26.534Z,39.91
2022-08-03T15:40:54.534Z,39.95
2022-08-03T15:43:22.036Z,39.91
2022-08-03T15:45:51.903Z,39.85
2022-08-03T15:48:26.616Z,39.72
2022-08-03T15:50:54.519Z,39.74
2022-08-03T15:53:21.129Z,39.79
2022-08-03T15:55:47.653Z,39.75
2022-08-03T15:59:09.726Z,39.87
2022-08-03T16:01:02.198Z,39.90
2022-08-03T16:03:34.281Z,39.88
2022-08-03T16:06:05.350Z,39.81
2022-08-03T16:08:32.501Z,39.78
2022-08-03T16:10:59.668Z,39.74
2022-08-03T16:14:13.350Z,39.62
2022-08-03T16:16:13.915Z,39.66
2022-08-03T16:18:40.476Z,39.63
2022-08-03T16:21:07.047Z,39.68
2022-08-03T16:23:39.587Z,39.67
2022-08-03T16:26:09.424Z,39.54
2022-08-03T16:28:38.065Z,39.43
2022-08-03T16:31:06.025Z,39.36
2022-08-03T16:33:33.436Z,39.36
2022-08-03T16:36:00.405Z,39.33
2022-08-03T16:38:27.161Z,39.27
2022-08-03T16:40:53.711Z,39.14
2022-08-03T16:43:24.763Z,39.08
2022-08-03T16:45:51.737Z,39.00
2022-08-03T16:48:19.054Z,38.97
2022-08-03T16:50:46.052Z,38.89
2022-08-03T16:53:16.918Z,38.84
2022-08-03T16:55:52.326Z,38.63
2022-08-03T16:58:34.335Z,38.38
2022-08-03T17:01:24.431Z,38.32
2022-08-03T17:04:02.952Z,38.27
2022-08-03T17:06:35.522Z,38.19
2022-08-03T17:09:08.709Z,38.20
2022-08-03T17:11:37.232Z,38.26
2022-08-03T17:14:09.220Z,38.24
2022-08-03T17:16:38.272Z,38.21
2022-08-03T17:19:07.184Z,38.21
2022-08-03T17:21:39.068Z,38.20
2022-08-03T17:24:12.371Z,38.22
2022-08-03T17:26:45.803Z,38.14
2022-08-03T17:29:19.041Z,38.08
2022-08-03T17:31:54.167Z,37.82
2022-08-03T17:34:26.299Z,37.82
2022-08-03T17:37:12.010Z,37.71
2022-08-03T17:39:58.319Z,37.74
2022-08-03T17:42:31.368Z,37.71
2022-08-03T17:45:02.173Z,37.74
2022-08-03T17:47:41.785Z,37.61
2022-08-03T17:50:24.702Z,37.46
2022-08-03T17:56:04.787Z,37.31
2022-08-03T17:58:42.089Z,37.31
2022-08-03T18:01:57.429Z,37.30
2022-08-03T18:04:30.235Z,37.29
2022-08-03T18:06:59.564Z,37.24
2022-08-03T18:10:04.141Z,37.14
2022-08-03T18:12:26.974Z,37.10
2022-08-03T18:15:01.271Z,37.05
2022-08-03T18:17:55.552Z,37.00
2022-08-03T18:20:34.113Z,37.02
2022-08-03T18:23:08.777Z,36.97
2022-08-03T18:25:45.251Z,36.88
2022-08-03T18:28:16.425Z,36.75
2022-08-03T18:30:53.382Z,36.61
2022-08-03T18:36:17.254Z,36.41
2022-08-03T18:38:47.412Z,36.28
2022-08-03T18:41:20.694Z,36.18
2022-08-03T18:44:06.740Z,36.07
2022-08-03T18:46:54.343Z,36.01
2022-08-03T18:49:35.871Z,35.91
2022-08-03T18:52:17.845Z,35.79
2022-08-03T18:55:02.320Z,35.68
2022-08-03T18:57:48.538Z,35.56
2022-08-03T19:00:17.343Z,35.41
2022-08-03T19:03:02.669Z,35.31
2022-08-03T19:05:53.694Z,35.25
2022-08-03T19:08:53.852Z,35.12
2022-08-03T19:12:12.336Z,34.97
2022-08-03T19:14:28.748Z,34.80
2022-08-03T19:17:08.732Z,34.77
2022-08-03T19:19:43.960Z,34.72
2022-08-03T19:22:16.090Z,34.65
2022-08-03T19:24:45.769Z,34.50
2022-08-03T19:27:13.438Z,34.43
2022-08-03T19:29:59.859Z,34.34
2022-08-03T19:32:29.442Z,34.13
2022-08-03T19:34:57.055Z,34.07
2022-08-03T19:37:38.355Z,34.01
2022-08-03T19:40:10.444Z,33.96
2022-08-03T19:42:42.926Z,33.95
2022-08-03T19:45:15.430Z,33.93
2022-08-03T19:47:47.440Z,33.83
2022-08-03T19:50:15.787Z,33.69
2022-08-03T19:52:47.629Z,33.58
2022-08-03T19:55:15.845Z,33.49
2022-08-03T19:57:46.005Z,33.40
2022-08-03T20:00:14.207Z,33.18
2022-08-03T20:02:42.036Z,33.02
2022-08-03T20:05:11.937Z,32.89
2022-08-03T20:07:42.595Z,32.84
2022-08-03T20:10:15.842Z,32.82
2022-08-03T20:12:44.781Z,32.82
2022-08-03T20:15:12.147Z,32.77
2022-08-03T20:17:56.220Z,32.73
2022-08-03T20:20:36.532Z,32.62
2022-08-03T20:23:18.058Z,32.59
2022-08-03T20:25:58.673Z,32.55
2022-08-03T20:28:29.036Z,32.45
2022-08-03T20:30:56.418Z,32.37
2022-08-03T20:33:27.915Z,32.35
2022-08-03T20:36:10.434Z,32.21
2022-08-03T20:38:43.840Z,32.15
2022-08-03T20:41:14.821Z,32.13
2022-08-03T20:43:41.695Z,32.15
2022-08-03T20:46:32.188Z,32.10
2022-08-03T20:48:57.151Z,32.11
2022-08-03T20:51:50.697Z,32.14
2022-08-03T20:54:23.034Z,32.15
2022-08-03T20:56:58.207Z,32.16
2022-08-03T20:59:35.086Z,32.15
2022-08-03T21:02:19.604Z,32.17
2022-08-03T21:04:56.148Z,32.04
2022-08-03T21:07:24.095Z,31.96
2022-08-03T21:09:52.736Z,31.80
2022-08-03T21:12:33.735Z,31.69
2022-08-03T21:12:55.594Z,37.39
2022-08-03T21:12:58.400Z,36.50
2022-08-03T21:15:06.140Z,31.58
2022-08-03T21:17:41.991Z,31.57
2022-08-03T21:20:11.719Z,31.52
2022-08-03T21:22:39.631Z,31.43
2022-08-03T21:25:09.258Z,31.28
2022-08-03T21:27:37.412Z,31.16
2022-08-03T21:30:10.253Z,30.92
2022-08-03T21:32:40.149Z,30.77
2022-08-03T21:35:09.496Z,30.75
2022-08-03T21:37:37.314Z,30.72
2022-08-03T21:40:04.341Z,30.73
2022-08-03T21:42:30.913Z,30.72
2022-08-03T21:44:57.472Z,30.69
2022-08-03T21:47:24.802Z,30.69
2022-08-03T21:50:07.205Z,30.67
2022-08-03T21:52:41.138Z,30.47
2022-08-03T21:55:08.653Z,30.34
2022-08-03T21:57:51.616Z,30.27
2022-08-03T22:00:20.498Z,30.21
2022-08-03T22:02:58.273Z,30.22
2022-08-03T22:05:43.060Z,30.28
2022-08-03T22:08:13.601Z,30.36
2022-08-03T22:10:43.426Z,30.49
2022-08-03T22:13:11.633Z,30.59
2022-08-03T22:15:38.353Z,30.69
2022-08-03T22:18:05.576Z,30.73
2022-08-03T22:20:32.219Z,30.68
2022-08-03T22:23:05.432Z,30.57
2022-08-03T22:25:35.351Z,30.44
2022-08-03T22:28:06.704Z,30.30
2022-08-03T22:30:33.665Z,30.15
2022-08-03T22:33:02.802Z,30.04
2022-08-03T22:35:32.066Z,29.92
2022-08-03T22:38:11.145Z,29.86
2022-08-03T22:40:38.812Z,29.82
2022-08-03T22:43:08.559Z,29.78
2022-08-03T22:46:06.228Z,29.70
2022-08-03T22:48:22.702Z,29.40
2022-08-03T22:50:49.571Z,29.26
2022-08-03T22:53:21.696Z,29.10
2022-08-03T22:55:51.635Z,29.02
2022-08-03T22:58:22.685Z,28.85
2022-08-03T23:00:56.602Z,28.74
2022-08-03T23:03:58.934Z,28.71
2022-08-03T23:06:19.727Z,28.76
2022-08-03T23:08:47.622Z,28.77
2022-08-03T23:11:17.431Z,28.82
2022-08-03T23:13:51.424Z,28.88
2022-08-03T23:16:28.770Z,28.85
2022-08-03T23:18:56.444Z,28.82
2022-08-03T23:21:59.947Z,28.73
2022-08-03T23:24:25.962Z,28.74
2022-08-03T23:26:57.616Z,28.77
2022-08-03T23:29:26.115Z,28.74
2022-08-03T23:31:53.682Z,28.71
2022-08-03T23:34:40.351Z,28.73
2022-08-03T23:37:06.873Z,28.75
2022-08-03T23:39:35.214Z,28.73
2022-08-03T23:42:02.872Z,28.70
2022-08-03T23:44:31.220Z,28.68
2022-08-03T23:46:57.865Z,28.67
2022-08-03T23:49:24.456Z,28.69
2022-08-03T23:52:06.391Z,28.71
2022-08-03T23:54:53.219Z,28.66
2022-08-03T23:57:45.468Z,28.56
